createdAt,value
2022-09-09T00:00:42.436Z,95963.94
2022-09-09T00:03:17.871Z,95972.03
2022-09-09T00:05:58.083Z,95973.28
2022-09-09T00:08:40.037Z,95968.78
2022-09-09T00:11:08.133Z,95968.13
2022-09-09T00:13:41.059Z,95976.97
2022-09-09T00:16:17.287Z,95971.78
2022-09-09T00:18:57.767Z,95970.41
2022-09-09T00:21:33.285Z,95965.09
2022-09-09T00:24:03.739Z,95965.06
2022-09-09T00:26:40.047Z,95958.28
2022-09-09T00:29:16.559Z,95966.31
2022-09-09T00:31:44.140Z,95955.00
2022-09-09T00:34:15.220Z,95956.47
2022-09-09T00:36:44.892Z,95949.44
2022-09-09T00:39:21.188Z,95955.66
2022-09-09T00:42:10.067Z,95956.69
2022-09-09T00:44:40.532Z,95955.28
2022-09-09T00:47:27.829Z,95962.94
2022-09-09T00:50:03.240Z,95956.16
2022-09-09T00:52:41.746Z,95958.22
2022-09-09T00:55:19.840Z,95967.06
2022-09-09T00:57:50.317Z,95966.47
2022-09-09T01:00:25.584Z,95967.88
2022-09-09T01:03:14.252Z,95969.81
2022-09-09T01:05:48.091Z,95976.69
2022-09-09T01:08:34.235Z,95979.28
2022-09-09T01:11:03.229Z,95974.34
2022-09-09T01:13:34.713Z,95991.25
2022-09-09T01:16:04.758Z,95981.34
2022-09-09T01:18:36.415Z,95964.47
2022-09-09T01:21:15.001Z,95977.22
2022-09-09T01:24:02.224Z,95973.69
2022-09-09T01:26:34.242Z,95961.66
2022-09-09T01:29:01.891Z,95959.13
2022-09-09T01:31:33.430Z,95965.25
2022-09-09T01:34:00.951Z,95960.41
2022-09-09T01:36:35.686Z,95959.94
2022-09-09T01:39:03.693Z,95962.28
2022-09-09T01:41:32.819Z,95949.50
2022-09-09T01:44:00.451Z,95956.13
2022-09-09T01:46:30.837Z,95953.63
2022-09-09T01:49:00.971Z,95958.34
2022-09-09T01:51:28.925Z,95956.50
2022-09-09T01:53:56.448Z,95964.44
2022-09-09T01:56:37.886Z,95962.97
2022-09-09T01:59:25.450Z,95962.06
2022-09-09T02:02:06.931Z,95957.50
2022-09-09T02:04:40.172Z,95957.13
2022-09-09T02:07:21.212Z,95956.72
2022-09-09T02:09:57.381Z,95955.59
2022-09-09T02:12:29.680Z,95952.41
2022-09-09T02:15:02.527Z,95960.31
2022-09-09T02:17:36.012Z,95957.44
2022-09-09T02:20:08.584Z,95959.28
2022-09-09T02:22:40.764Z,95960.31
2022-09-09T02:25:12.786Z,95958.66
2022-09-09T02:27:43.091Z,95956.63
2022-09-09T02:30:12.544Z,95958.06
2022-09-09T02:32:42.536Z,95956.22
2022-09-09T02:35:15.347Z,95955.38
2022-09-09T02:37:47.050Z,95959.28
2022-09-09T02:40:17.236Z,95956.19
2022-09-09T02:42:48.196Z,95950.22
2022-09-09T02:45:18.744Z,95951.66
2022-09-09T02:47:53.156Z,95952.09
2022-09-09T02:50:24.917Z,95949.59
2022-09-09T02:53:04.040Z,95945.50
2022-09-09T02:55:39.931Z,95956.22
2022-09-09T02:58:12.435Z,95947.34
2022-09-09T03:00:41.461Z,95945.72
2022-09-09T03:03:10.680Z,95944.69
2022-09-09T03:05:38.346Z,95942.22
2022-09-09T03:08:07.396Z,95948.19
2022-09-09T03:10:35.642Z,95944.69
2022-09-09T03:13:03.437Z,95949.22
2022-09-09T03:15:32.322Z,95944.69
2022-09-09T03:18:00.673Z,95941.38
2022-09-09T03:20:30.067Z,95946.72
2022-09-09T03:22:58.747Z,95947.13
2022-09-09T03:25:26.665Z,95944.66
2022-09-09T03:27:55.821Z,95950.44
2022-09-09T03:30:23.865Z,95948.56
2022-09-09T03:32:53.075Z,95951.63
2022-09-09T03:35:20.995Z,95957.19
2022-09-09T03:37:48.855Z,95965.19
2022-09-09T03:40:16.952Z,95959.56
2022-09-09T03:42:44.516Z,95961.41
2022-09-09T03:45:12.454Z,95955.63
2022-09-09T03:47:40.019Z,95953.16
2022-09-09T03:50:10.453Z,95957.31
2022-09-09T03:52:37.951Z,95960.91
2022-09-09T03:55:06.739Z,95961.94
2022-09-09T03:57:35.922Z,95957.59
2022-09-09T04:00:04.735Z,95953.25
2022-09-09T04:02:32.371Z,95960.25
2022-09-09T04:05:00.623Z,95957.50
2022-09-09T04:07:29.525Z,95963.03
2022-09-09T04:09:56.986Z,95964.28
2022-09-09T04:12:24.448Z,95962.88
2022-09-09T04:14:51.916Z,95963.53
2022-09-09T04:17:19.422Z,95960.91
2022-09-09T04:19:47.520Z,95955.72
2022-09-09T04:22:15.144Z,95958.34
2022-09-09T04:24:48.547Z,95960.78
2022-09-09T04:27:16.322Z,95958.63
2022-09-09T04:29:43.763Z,95961.31
2022-09-09T04:32:11.251Z,95961.94
2022-09-09T04:34:38.694Z,95956.34
2022-09-09T04:37:06.155Z,95960.09
2022-09-09T04:39:33.681Z,95957.81
2022-09-09T04:42:02.957Z,95954.97
2022-09-09T04:44:31.076Z,95955.16
2022-09-09T04:46:58.793Z,95945.69
2022-09-09T04:49:26.915Z,95936.19
2022-09-09T04:51:54.390Z,95940.16
2022-09-09T04:54:22.342Z,95935.41
2022-09-09T04:56:51.738Z,95931.66
2022-09-09T04:59:20.583Z,95937.03
2022-09-09T05:01:48.153Z,95939.31
2022-09-09T05:04:16.224Z,95929.63
2022-09-09T05:06:43.775Z,95935.19
2022-09-09T05:09:11.268Z,95936.41
2022-09-09T05:11:39.097Z,95933.84
2022-09-09T05:14:06.678Z,95934.69
2022-09-09T05:16:35.654Z,95931.63
2022-09-09T05:19:04.226Z,95940.91
2022-09-09T05:21:32.355Z,95936.25
2022-09-09T05:24:01.458Z,95942.16
2022-09-09T05:26:30.322Z,95947.97
2022-09-09T05:28:57.856Z,95947.97
2022-09-09T05:31:28.677Z,95952.03
2022-09-09T05:33:57.550Z,95948.66
2022-09-09T05:36:25.228Z,95960.22
2022-09-09T05:38:54.699Z,95961.03
2022-09-09T05:41:23.909Z,95964.56
2022-09-09T05:43:51.512Z,95966.88
2022-09-09T05:46:20.862Z,95972.25
2022-09-09T05:48:51.557Z,95981.34
2022-09-09T05:51:22.992Z,95978.66
2022-09-09T05:53:51.876Z,95988.97
2022-09-09T05:56:20.953Z,95991.25
2022-09-09T05:58:50.096Z,95986.09
2022-09-09T06:01:19.300Z,95992.06
2022-09-09T06:03:48.497Z,95985.69
2022-09-09T06:06:18.117Z,95985.88
2022-09-09T06:08:47.335Z,95989.38
2022-09-09T06:11:17.373Z,95989.56
2022-09-09T06:13:45.167Z,95992.41
2022-09-09T06:16:14.520Z,95989.91
2022-09-09T06:18:43.404Z,95991.16
2022-09-09T06:21:18.014Z,95991.19
2022-09-09T06:23:47.996Z,95987.94
2022-09-09T06:26:18.281Z,95986.69
2022-09-09T06:28:46.617Z,95992.84
2022-09-09T06:31:16.026Z,95994.91
2022-09-09T06:33:44.357Z,95987.00
2022-09-09T06:36:13.967Z,95992.59
2022-09-09T06:38:41.487Z,95992.31
2022-09-09T06:41:11.884Z,95995.19
2022-09-09T06:43:39.598Z,95988.00
2022-09-09T06:46:09.092Z,95990.84
2022-09-09T06:48:37.360Z,95987.63
2022-09-09T06:51:06.412Z,95981.09
2022-09-09T06:53:35.458Z,95996.13
2022-09-09T06:56:03.612Z,95990.56
2022-09-09T06:58:33.232Z,95992.00
2022-09-09T07:01:05.469Z,95992.78
2022-09-09T07:03:33.619Z,95995.78
2022-09-09T07:06:01.603Z,95990.91
2022-09-09T07:08:29.426Z,95997.78
2022-09-09T07:11:10.213Z,96001.72
2022-09-09T07:13:40.978Z,96008.59
2022-09-09T07:16:10.653Z,96002.91
2022-09-09T07:18:38.535Z,96003.47
2022-09-09T07:21:07.409Z,96001.13
2022-09-09T07:23:36.619Z,96009.16
2022-09-09T07:26:04.904Z,96001.84
2022-09-09T07:28:32.411Z,96003.97
2022-09-09T07:31:03.923Z,96006.91
2022-09-09T07:33:33.198Z,96016.25
2022-09-09T07:36:06.716Z,96020.78
2022-09-09T07:38:34.249Z,96021.56
2022-09-09T07:41:07.831Z,96021.94
2022-09-09T07:43:35.282Z,96020.69
2022-09-09T07:46:04.148Z,96022.94
2022-09-09T07:48:31.690Z,96032.03
2022-09-09T07:51:11.676Z,96043.06
2022-09-09T07:53:39.858Z,96042.59
2022-09-09T07:56:10.105Z,96049.19
2022-09-09T07:58:38.626Z,96056.16
2022-09-09T08:01:12.935Z,96045.91
2022-09-09T08:03:40.833Z,96046.72
2022-09-09T08:06:10.584Z,96054.13
2022-09-09T08:08:39.589Z,96056.03
2022-09-09T08:11:09.897Z,96060.28
2022-09-09T08:13:38.381Z,96055.25
2022-09-09T08:16:07.976Z,96053.94
2022-09-09T08:18:37.359Z,96050.94
2022-09-09T08:21:09.893Z,96046.38
2022-09-09T08:23:38.334Z,96048.09
2022-09-09T08:26:07.665Z,96057.44
2022-09-09T08:28:35.125Z,96054.25
2022-09-09T08:31:11.578Z,96059.19
2022-09-09T08:33:41.966Z,96060.44
2022-09-09T08:36:11.791Z,96057.19
2022-09-09T08:38:39.782Z,96058.63
2022-09-09T08:41:32.565Z,96065.91
2022-09-09T08:44:09.151Z,96057.31
2022-09-09T08:46:47.848Z,96066.03
2022-09-09T08:49:33.652Z,96066.25
2022-09-09T08:52:02.233Z,96056.31
2022-09-09T08:54:51.248Z,96055.25
2022-09-09T08:57:27.591Z,96052.41
2022-09-09T08:59:58.506Z,96062.84
2022-09-09T09:02:32.531Z,96068.00
2022-09-09T09:05:13.494Z,96066.69
2022-09-09T09:07:52.182Z,96062.38
2022-09-09T09:10:42.243Z,96068.34
2022-09-09T09:13:17.867Z,96061.03
2022-09-09T09:15:48.896Z,96065.31
2022-09-09T09:18:18.885Z,96076.00
2022-09-09T09:20:55.120Z,96060.97
2022-09-09T09:23:25.812Z,96060.16
2022-09-09T09:26:00.270Z,96059.72
2022-09-09T09:28:30.759Z,96058.16
2022-09-09T09:31:02.443Z,96058.06
2022-09-09T09:33:37.263Z,96053.09
2022-09-09T09:36:09.282Z,96049.41
2022-09-09T09:41:33.403Z,96044.38
2022-09-09T09:44:02.570Z,96040.75
2022-09-09T09:46:30.495Z,96043.13
2022-09-09T09:49:03.101Z,96033.25
2022-09-09T09:51:33.897Z,96031.78
2022-09-09T09:54:28.498Z,96029.31
2022-09-09T09:56:55.949Z,96036.31
2022-09-09T09:59:41.605Z,96040.88
2022-09-09T10:02:18.172Z,96049.72
2022-09-09T10:04:46.214Z,96043.09
2022-09-09T10:07:19.960Z,96048.97
2022-09-09T10:09:50.190Z,96042.53
2022-09-09T10:12:32.672Z,96039.66
2022-09-09T10:15:07.304Z,96043.91
2022-09-09T10:17:41.376Z,96039.41
2022-09-09T10:20:25.467Z,96035.16
2022-09-09T10:23:02.458Z,96033.22
2022-09-09T10:25:39.292Z,96026.72
2022-09-09T10:28:29.254Z,96032.66
2022-09-09T10:31:04.915Z,96032.63
2022-09-09T10:33:39.010Z,96025.75
2022-09-09T10:36:15.028Z,96026.53
2022-09-09T10:38:47.009Z,96029.00
2022-09-09T10:41:39.893Z,96020.28
2022-09-09T10:44:23.359Z,96018.16
2022-09-09T10:47:08.201Z,96026.28
2022-09-09T10:50:02.794Z,96012.81
2022-09-09T10:52:38.292Z,96021.31
2022-09-09T10:55:14.173Z,96013.50
2022-09-09T10:57:45.498Z,96009.44
2022-09-09T11:00:18.983Z,96008.19
2022-09-09T11:02:49.809Z,96010.47
2022-09-09T11:05:21.223Z,96015.88
2022-09-09T11:07:54.906Z,96013.78
2022-09-09T11:10:29.106Z,96012.66
2022-09-09T11:13:01.905Z,96006.44
2022-09-09T11:15:33.822Z,96016.75
2022-09-09T11:18:04.139Z,96003.88
2022-09-09T11:20:33.105Z,95999.94
2022-09-09T11:23:04.467Z,95995.78
2022-09-09T11:25:37.416Z,96001.16
2022-09-09T11:28:20.289Z,96001.91
2022-09-09T11:30:58.704Z,96007.41
2022-09-09T11:33:50.932Z,96001.47
2022-09-09T11:36:40.941Z,95990.19
2022-09-09T11:39:44.337Z,96002.97
2022-09-09T11:42:20.638Z,96003.31
2022-09-09T11:44:49.280Z,96003.81
2022-09-09T11:47:25.633Z,96005.44
2022-09-09T11:49:54.591Z,96002.53
2022-09-09T11:52:26.466Z,95990.47
2022-09-09T11:54:56.608Z,96006.59
2022-09-09T11:57:36.470Z,95997.34
2022-09-09T12:00:05.606Z,96002.63
2022-09-09T12:02:33.472Z,95989.56
2022-09-09T12:05:07.449Z,95992.41
2022-09-09T12:07:39.834Z,95994.13
2022-09-09T12:10:24.250Z,95992.63
2022-09-09T12:12:53.467Z,95999.84
2022-09-09T12:15:26.906Z,95998.91
2022-09-09T12:18:00.166Z,95995.94
2022-09-09T12:20:35.632Z,95986.38
2022-09-09T12:23:18.333Z,95999.66
2022-09-09T12:25:59.749Z,96000.72
2022-09-09T12:28:42.592Z,95992.38
2022-09-09T12:31:18.933Z,95985.56
2022-09-09T12:33:48.996Z,95986.84
2022-09-09T12:36:19.070Z,95981.91
2022-09-09T12:38:46.783Z,95976.84
2022-09-09T12:41:22.821Z,95977.19
2022-09-09T12:43:52.125Z,95967.25
2022-09-09T12:46:37.167Z,95965.13
2022-09-09T12:49:05.963Z,95966.47
2022-09-09T12:51:35.207Z,95965.03
2022-09-09T12:54:02.828Z,95967.06
2022-09-09T12:56:32.845Z,95956.34
2022-09-09T12:59:02.126Z,95965.84
2022-09-09T13:01:32.239Z,95964.63
2022-09-09T13:04:00.384Z,95959.19
2022-09-09T13:06:30.340Z,95954.06
2022-09-09T13:09:00.452Z,95937.47
2022-09-09T13:11:32.978Z,95946.19
2022-09-09T13:14:01.931Z,95928.78
2022-09-09T13:16:32.653Z,95920.03
2022-09-09T13:19:02.370Z,95914.59
2022-09-09T13:21:35.443Z,95910.53
2022-09-09T13:24:05.120Z,95904.72
2022-09-09T13:26:32.876Z,95909.44
2022-09-09T13:29:19.617Z,95905.25
2022-09-09T13:31:47.349Z,95909.19
2022-09-09T13:34:15.986Z,95927.75
2022-09-09T13:36:44.004Z,95916.31
2022-09-09T13:39:18.064Z,95915.88
2022-09-09T13:41:46.858Z,95912.53
2022-09-09T13:44:24.525Z,95909.28
2022-09-09T13:47:08.043Z,95906.03
2022-09-09T13:49:37.709Z,95899.09
2022-09-09T13:52:08.528Z,95902.13
2022-09-09T13:54:36.342Z,95904.56
2022-09-09T13:57:05.395Z,95898.69
2022-09-09T14:00:01.191Z,95901.81
2022-09-09T14:02:24.205Z,95897.00
2022-09-09T14:04:55.923Z,95900.75
2022-09-09T14:07:23.859Z,95903.75
2022-09-09T14:09:52.722Z,95908.00
2022-09-09T14:12:21.068Z,95906.09
2022-09-09T14:14:50.619Z,95898.28
2022-09-09T14:17:18.419Z,95901.78
2022-09-09T14:19:45.990Z,95896.91
2022-09-09T14:22:13.447Z,95888.56
2022-09-09T14:24:41.830Z,95890.72
2022-09-09T14:27:09.647Z,95886.75
2022-09-09T14:29:37.100Z,95877.47
2022-09-09T14:32:10.616Z,95879.44
2022-09-09T14:34:40.031Z,95883.66
2022-09-09T14:37:07.474Z,95874.88
2022-09-09T14:39:35.081Z,95891.06
2022-09-09T14:42:03.153Z,95895.94
2022-09-09T14:44:30.598Z,95888.88
2022-09-09T14:46:59.476Z,95883.59
2022-09-09T14:49:28.269Z,95890.59
2022-09-09T14:51:55.709Z,95899.56
2022-09-09T14:54:23.948Z,95902.69
2022-09-09T14:56:51.411Z,95898.22
2022-09-09T14:59:18.870Z,95904.47
2022-09-09T15:01:46.503Z,95906.59
2022-09-09T15:04:15.911Z,95905.06
2022-09-09T15:06:49.008Z,95890.69
2022-09-09T15:09:16.675Z,95883.31
2022-09-09T15:11:45.198Z,95888.19
2022-09-09T15:14:13.206Z,95892.84
2022-09-09T15:16:41.392Z,95894.34
2022-09-09T15:19:10.103Z,95899.19
2022-09-09T15:21:38.996Z,95894.44
2022-09-09T15:24:09.129Z,95890.44
2022-09-09T15:26:39.425Z,95886.19
2022-09-09T15:29:08.354Z,95876.97
2022-09-09T15:31:36.238Z,95882.31
2022-09-09T15:34:06.200Z,95883.34
2022-09-09T15:36:35.453Z,95890.31
2022-09-09T15:39:04.615Z,95881.81
2022-09-09T15:41:33.816Z,95880.59
2022-09-09T15:44:02.361Z,95876.78
2022-09-09T15:46:33.174Z,95874.38
2022-09-09T15:49:06.015Z,95864.69
2022-09-09T15:51:48.979Z,95870.44
2022-09-09T15:54:18.966Z,95878.41
2022-09-09T15:56:49.648Z,95894.25
2022-09-09T15:59:17.100Z,95900.13
2022-09-09T16:01:44.945Z,95912.47
2022-09-09T16:04:13.035Z,95906.25
2022-09-09T16:06:40.887Z,95890.88
2022-09-09T16:09:10.842Z,95889.94
2022-09-09T16:11:40.007Z,95883.38
2022-09-09T16:14:08.913Z,95887.81
2022-09-09T16:16:37.146Z,95888.97
2022-09-09T16:19:07.295Z,95890.84
2022-09-09T16:21:36.733Z,95900.66
2022-09-09T16:24:06.095Z,95954.78
2022-09-09T16:26:35.477Z,95979.47
2022-09-09T16:29:03.715Z,95971.38
2022-09-09T16:31:33.822Z,95971.88
2022-09-09T16:34:01.711Z,95991.44
2022-09-09T16:36:31.722Z,96013.78
2022-09-09T16:39:00.635Z,96000.41
2022-09-09T16:41:30.084Z,95999.69
2022-09-09T16:44:00.179Z,95985.91
2022-09-09T16:46:29.494Z,95977.75
2022-09-09T16:49:00.606Z,95956.59
2022-09-09T16:51:30.597Z,95953.78
2022-09-09T16:54:00.659Z,95929.25
2022-09-09T16:56:30.849Z,95927.25
2022-09-09T16:59:00.007Z,95930.91
2022-09-09T17:01:29.528Z,95922.88
2022-09-09T17:04:01.395Z,95920.81
2022-09-09T17:06:30.329Z,95924.34
2022-09-09T17:08:58.349Z,95926.03
2022-09-09T17:11:26.439Z,95927.25
2022-09-09T17:13:55.509Z,95926.09
2022-09-09T17:16:25.287Z,95930.84
2022-09-09T17:18:53.306Z,95935.19
2022-09-09T17:21:24.359Z,95944.59
2022-09-09T17:23:52.223Z,95945.66
2022-09-09T17:26:22.140Z,95944.25
2022-09-09T17:28:49.989Z,95941.38
2022-09-09T17:31:20.419Z,95952.06
2022-09-09T17:33:50.175Z,95950.03
2022-09-09T17:36:19.489Z,95957.03
2022-09-09T17:38:48.290Z,95970.34
2022-09-09T17:41:18.543Z,95977.94
2022-09-09T17:43:46.886Z,95983.31
2022-09-09T17:46:16.524Z,95982.53
2022-09-09T17:48:45.703Z,95983.28
2022-09-09T17:51:15.096Z,95980.22
2022-09-09T17:53:44.791Z,95979.97
2022-09-09T17:56:16.309Z,95977.22
2022-09-09T17:58:45.203Z,95987.13
2022-09-09T18:01:14.892Z,95982.19
2022-09-09T18:03:44.446Z,95982.59
2022-09-09T18:06:16.043Z,95989.19
2022-09-09T18:08:44.047Z,95995.34
2022-09-09T18:11:12.856Z,96000.31
2022-09-09T18:13:40.318Z,96000.31
2022-09-09T18:16:09.210Z,96013.31
2022-09-09T18:18:36.924Z,96016.34
2022-09-09T18:21:06.543Z,96007.72
2022-09-09T18:23:37.337Z,96023.00
2022-09-09T18:26:10.245Z,96023.59
2022-09-09T18:28:39.520Z,96026.34
2022-09-09T18:31:08.763Z,96031.22
2022-09-09T18:33:38.168Z,96039.66
2022-09-09T18:36:08.054Z,96037.84
2022-09-09T18:38:37.151Z,96038.34
2022-09-09T18:41:14.414Z,96046.00
2022-09-09T18:43:43.728Z,96048.28
2022-09-09T18:46:12.031Z,96047.06
2022-09-09T18:48:40.371Z,96043.19
2022-09-09T18:51:09.503Z,96049.78
2022-09-09T18:53:37.797Z,96055.16
2022-09-09T18:56:07.605Z,96054.50
2022-09-09T18:58:36.276Z,96058.38
2022-09-09T19:01:07.817Z,96055.72
2022-09-09T19:03:36.561Z,96056.56
2022-09-09T19:06:05.730Z,96047.78
2022-09-09T19:08:36.999Z,96059.28
2022-09-09T19:11:05.446Z,96060.78
2022-09-09T19:13:33.218Z,96076.09
2022-09-09T19:16:06.529Z,96069.41
2022-09-09T19:18:34.704Z,96079.28
2022-09-09T19:21:11.098Z,96084.41
2022-09-09T19:23:39.378Z,96077.94
2022-09-09T19:26:07.275Z,96071.25
2022-09-09T19:28:35.472Z,96070.31
2022-09-09T19:31:09.510Z,96061.06
2022-09-09T19:33:38.436Z,96060.75
2022-09-09T19:36:09.218Z,96057.72
2022-09-09T19:38:36.856Z,96044.28
2022-09-09T19:41:05.968Z,96042.63
2022-09-09T19:43:34.835Z,96051.66
2022-09-09T19:46:06.670Z,96068.50
2022-09-09T19:48:37.420Z,96065.28
2022-09-09T19:51:06.318Z,96070.28
2022-09-09T19:53:37.582Z,96062.50
2022-09-09T19:56:05.943Z,96076.84
2022-09-09T19:58:35.144Z,96080.72
2022-09-09T20:01:10.551Z,96067.19
2022-09-09T20:03:40.706Z,96066.97
2022-09-09T20:06:09.963Z,96068.78
2022-09-09T20:08:39.265Z,96066.91
2022-09-09T20:11:09.271Z,96066.91
2022-09-09T20:13:38.758Z,96063.66
2022-09-09T20:16:08.959Z,96068.25
2022-09-09T20:18:37.971Z,96067.06
2022-09-09T20:21:09.492Z,96075.69
2022-09-09T20:23:38.353Z,96062.00
2022-09-09T20:26:07.546Z,96062.03
2022-09-09T20:28:35.790Z,96064.16
2022-09-09T20:31:07.084Z,96059.00
2022-09-09T20:33:35.752Z,96055.31
2022-09-09T20:36:12.435Z,96050.16
2022-09-09T20:38:42.792Z,96062.78
2022-09-09T20:41:14.304Z,96067.06
2022-09-09T20:43:47.590Z,96075.94
2022-09-09T20:46:15.085Z,96086.16
2022-09-09T20:48:42.993Z,96105.84
2022-09-09T20:51:13.243Z,96114.31
2022-09-09T20:53:41.190Z,96122.78
2022-09-09T20:56:09.119Z,96122.50
2022-09-09T20:58:37.287Z,96113.69
2022-09-09T21:01:07.388Z,96106.63
2022-09-09T21:03:37.846Z,96105.84
2022-09-09T21:06:05.982Z,96101.34
2022-09-09T21:08:36.697Z,96109.53
2022-09-09T21:11:04.670Z,96109.13
2022-09-09T21:13:33.846Z,96112.22
2022-09-09T21:16:01.890Z,96121.47
2022-09-09T21:18:29.351Z,96098.47
2022-09-09T21:20:57.854Z,96105.59
2022-09-09T21:23:25.866Z,96106.50
2022-09-09T21:25:55.696Z,96100.13
2022-09-09T21:28:25.564Z,96100.13
2022-09-09T21:30:55.738Z,96099.41
2022-09-09T21:33:25.339Z,96091.75
2022-09-09T21:35:52.934Z,96095.88
2022-09-09T21:38:21.979Z,96100.91
2022-09-09T21:40:50.102Z,96100.06
2022-09-09T21:43:20.326Z,96089.16
2022-09-09T21:45:49.411Z,96094.13
2022-09-09T21:48:18.805Z,96094.22
2022-09-09T21:50:48.315Z,96097.13
2022-09-09T21:53:18.079Z,96099.44
2022-09-09T21:55:46.440Z,96100.84
2022-09-09T21:58:15.000Z,96098.38
2022-09-09T22:00:45.739Z,96098.69
2022-09-09T22:03:14.498Z,96107.38
2022-09-09T22:05:43.390Z,96105.78
2022-09-09T22:08:12.155Z,96111.63
2022-09-09T22:10:40.921Z,96113.41
2022-09-09T22:13:08.964Z,96111.44
2022-09-09T22:15:36.725Z,96116.50
2022-09-09T22:18:06.124Z,96118.97
2022-09-09T22:20:35.461Z,96117.94
2022-09-09T22:23:03.050Z,96123.03
2022-09-09T22:25:35.201Z,96116.88
2022-09-09T22:28:02.780Z,96116.47
2022-09-09T22:30:30.503Z,96113.66
2022-09-09T22:32:58.842Z,96122.56
2022-09-09T22:35:28.960Z,96114.38
2022-09-09T22:37:57.149Z,96127.59
2022-09-09T22:40:24.667Z,96119.56
2022-09-09T22:42:53.414Z,96125.13
2022-09-09T22:45:21.575Z,96116.03
2022-09-09T22:47:49.074Z,96122.22
2022-09-09T22:50:16.742Z,96118.03
2022-09-09T22:52:45.534Z,96107.50
2022-09-09T22:55:13.013Z,96104.84
2022-09-09T22:57:41.383Z,96106.50
2022-09-09T23:00:10.348Z,96106.50
2022-09-09T23:02:40.782Z,96106.25
2022-09-09T23:05:09.407Z,96103.56
2022-09-09T23:07:37.228Z,96098.06
2022-09-09T23:10:06.879Z,96097.94
2022-09-09T23:12:34.954Z,96099.38
2022-09-09T23:15:03.318Z,96099.56
2022-09-09T23:17:31.196Z,96093.31
2022-09-09T23:19:58.689Z,96103.56
2022-09-09T23:22:26.850Z,96093.94
2022-09-09T23:24:55.211Z,96098.22
2022-09-09T23:27:25.044Z,96096.16
2022-09-09T23:29:52.512Z,96097.19
2022-09-09T23:32:20.112Z,96100.47
2022-09-09T23:34:48.817Z,96096.72
2022-09-09T23:37:16.685Z,96099.44
2022-09-09T23:39:44.215Z,96094.56
2022-09-09T23:42:13.862Z,96089.31
2022-09-09T23:44:42.894Z,96096.78
2022-09-09T23:47:10.806Z,96095.78
2022-09-09T23:49:39.477Z,96087.38
2022-09-09T23:52:07.126Z,96096.31
2022-09-09T23:54:35.717Z,96096.13
2022-09-09T23:57:04.448Z,96089.25
2022-09-09T23:59:31.914Z,96085.50
